sensor_id;sensor_type;location;lat;lon;timestamp;pressure;altitude;pressure_sealevel;temperature;humidity
12536;BME280;6334;48.696;2.114;2023-01-28T00:00:35;100911.20;;;4.01;74.32
12536;BME280;6334;48.696;2.114;2023-01-28T00:03:05;100912.96;;;3.82;74.76
12536;BME280;6334;48.696;2.114;2023-01-28T00:05:36;100907.78;;;3.88;74.54
12536;BME280;6334;48.696;2.114;2023-01-28T00:08:06;100908.29;;;3.97;73.38
12536;BME280;6334;48.696;2.114;2023-01-28T00:10:36;100908.06;;;3.78;73.74
12536;BME280;6334;48.696;2.114;2023-01-28T00:13:07;100902.76;;;3.77;73.34
12536;BME280;6334;48.696;2.114;2023-01-28T00:15:37;100912.63;;;3.93;73.69
12536;BME280;6334;48.696;2.114;2023-01-28T00:18:07;100917.12;;;3.89;74.29
12536;BME280;6334;48.696;2.114;2023-01-28T00:20:38;100913.59;;;3.68;74.41
12536;BME280;6334;48.696;2.114;2023-01-28T00:23:08;100915.79;;;3.80;74.18
12536;BME280;6334;48.696;2.114;2023-01-28T00:25:39;100917.30;;;3.90;73.51
12536;BME280;6334;48.696;2.114;2023-01-28T00:28:09;100912.73;;;3.85;74.03
12536;BME280;6334;48.696;2.114;2023-01-28T00:30:40;100911.52;;;3.80;74.21
12536;BME280;6334;48.696;2.114;2023-01-28T00:33:12;100912.02;;;3.78;74.13
12536;BME280;6334;48.696;2.114;2023-01-28T00:35:43;100911.59;;;3.80;74.47
12536;BME280;6334;48.696;2.114;2023-01-28T00:38:14;100918.85;;;3.78;73.19
12536;BME280;6334;48.696;2.114;2023-01-28T00:40:44;100911.13;;;3.68;73.90
12536;BME280;6334;48.696;2.114;2023-01-28T00:43:14;100912.86;;;3.84;73.93
12536;BME280;6334;48.696;2.114;2023-01-28T00:45:45;100912.32;;;3.85;73.79
12536;BME280;6334;48.696;2.114;2023-01-28T00:48:15;100910.59;;;3.97;73.41
12536;BME280;6334;48.696;2.114;2023-01-28T00:50:46;100903.70;;;3.77;74.03
12536;BME280;6334;48.696;2.114;2023-01-28T00:53:16;100907.42;;;3.78;73.89
12536;BME280;6334;48.696;2.114;2023-01-28T00:55:46;100901.69;;;3.83;73.40
12536;BME280;6334;48.696;2.114;2023-01-28T00:58:15;100903.99;;;3.52;73.98
12536;BME280;6334;48.696;2.114;2023-01-28T01:00:46;100908.31;;;3.77;73.90
12536;BME280;6334;48.696;2.114;2023-01-28T01:03:17;100903.48;;;3.76;74.07
12536;BME280;6334;48.696;2.114;2023-01-28T01:05:47;100907.09;;;3.78;73.42
12536;BME280;6334;48.696;2.114;2023-01-28T01:08:17;100904.17;;;3.74;73.91
12536;BME280;6334;48.696;2.114;2023-01-28T01:10:48;100909.46;;;3.72;73.94
12536;BME280;6334;48.696;2.114;2023-01-28T01:13:18;100901.58;;;3.59;73.73
12536;BME280;6334;48.696;2.114;2023-01-28T01:15:49;100911.12;;;3.62;73.71
12536;BME280;6334;48.696;2.114;2023-01-28T01:18:19;100909.83;;;3.77;73.10
12536;BME280;6334;48.696;2.114;2023-01-28T01:20:50;100913.39;;;3.74;73.34
12536;BME280;6334;48.696;2.114;2023-01-28T01:23:22;100902.10;;;3.72;73.46
12536;BME280;6334;48.696;2.114;2023-01-28T01:25:53;100929.55;;;3.62;73.70
12536;BME280;6334;48.696;2.114;2023-01-28T01:28:23;100928.09;;;3.65;73.86
12536;BME280;6334;48.696;2.114;2023-01-28T01:31:00;100930.18;;;3.91;72.48
12536;BME280;6334;48.696;2.114;2023-01-28T01:33:30;100929.50;;;3.82;72.45
12536;BME280;6334;48.696;2.114;2023-01-28T01:36:00;100922.58;;;3.76;73.06
12536;BME280;6334;48.696;2.114;2023-01-28T01:38:31;100926.66;;;3.62;73.05
12536;BME280;6334;48.696;2.114;2023-01-28T01:41:01;100925.59;;;3.72;73.04
12536;BME280;6334;48.696;2.114;2023-01-28T01:43:47;100931.36;;;3.68;73.06
12536;BME280;6334;48.696;2.114;2023-01-28T01:46:16;100932.22;;;3.57;73.17
12536;BME280;6334;48.696;2.114;2023-01-28T01:48:46;100932.23;;;3.58;73.21
12536;BME280;6334;48.696;2.114;2023-01-28T01:51:18;100933.17;;;3.48;73.42
12536;BME280;6334;48.696;2.114;2023-01-28T01:53:48;100928.55;;;3.69;73.12
12536;BME280;6334;48.696;2.114;2023-01-28T01:56:17;100928.01;;;3.51;73.33
12536;BME280;6334;48.696;2.114;2023-01-28T01:58:48;100926.17;;;3.48;73.58
12536;BME280;6334;48.696;2.114;2023-01-28T02:01:19;100933.17;;;3.43;73.14
12536;BME280;6334;48.696;2.114;2023-01-28T02:04:02;100930.39;;;3.60;73.08
12536;BME280;6334;48.696;2.114;2023-01-28T02:06:29;100930.84;;;3.60;72.92
12536;BME280;6334;48.696;2.114;2023-01-28T02:09:00;100928.68;;;3.57;73.09
12536;BME280;6334;48.696;2.114;2023-01-28T02:11:31;100923.80;;;3.70;72.98
12536;BME280;6334;48.696;2.114;2023-01-28T02:14:01;100930.04;;;3.77;72.19
12536;BME280;6334;48.696;2.114;2023-01-28T02:16:31;100928.36;;;3.68;71.91
12536;BME280;6334;48.696;2.114;2023-01-28T02:19:02;100928.51;;;3.52;72.91
12536;BME280;6334;48.696;2.114;2023-01-28T02:27:19;100935.98;;;3.60;72.87
12536;BME280;6334;48.696;2.114;2023-01-28T02:32:24;100931.59;;;3.56;71.78
12536;BME280;6334;48.696;2.114;2023-01-28T02:35:06;100944.05;;;3.64;71.86
12536;BME280;6334;48.696;2.114;2023-01-28T02:40:29;100941.38;;;3.69;71.39
12536;BME280;6334;48.696;2.114;2023-01-28T02:42:59;100941.97;;;3.66;72.27
12536;BME280;6334;48.696;2.114;2023-01-28T02:45:32;100942.33;;;3.81;71.15
12536;BME280;6334;48.696;2.114;2023-01-28T02:48:21;100944.90;;;3.63;71.86
12536;BME280;6334;48.696;2.114;2023-01-28T02:53:44;100941.41;;;3.64;71.60
12536;BME280;6334;48.696;2.114;2023-01-28T02:56:40;100941.37;;;3.68;71.97
12536;BME280;6334;48.696;2.114;2023-01-28T02:59:12;100939.47;;;3.53;72.42
12536;BME280;6334;48.696;2.114;2023-01-28T03:02:09;100940.88;;;3.55;72.39
12536;BME280;6334;48.696;2.114;2023-01-28T03:05:24;100938.08;;;3.63;72.24
12536;BME280;6334;48.696;2.114;2023-01-28T03:07:08;100934.98;;;3.62;71.40
12536;BME280;6334;48.696;2.114;2023-01-28T03:09:39;100930.12;;;3.62;71.89
12536;BME280;6334;48.696;2.114;2023-01-28T03:12:10;100934.47;;;3.69;71.65
12536;BME280;6334;48.696;2.114;2023-01-28T03:15:10;100937.92;;;3.60;71.49
12536;BME280;6334;48.696;2.114;2023-01-28T03:18:00;100940.19;;;3.57;71.72
12536;BME280;6334;48.696;2.114;2023-01-28T03:24:14;100940.59;;;3.51;71.51
12536;BME280;6334;48.696;2.114;2023-01-28T03:27:04;100942.81;;;3.38;72.42
12536;BME280;6334;48.696;2.114;2023-01-28T03:29:52;100946.95;;;3.37;71.98
12536;BME280;6334;48.696;2.114;2023-01-28T03:32:39;100951.47;;;3.47;72.34
12536;BME280;6334;48.696;2.114;2023-01-28T03:35:28;100956.16;;;3.65;71.56
12536;BME280;6334;48.696;2.114;2023-01-28T03:38:16;100957.90;;;3.45;72.43
12536;BME280;6334;48.696;2.114;2023-01-28T03:40:50;100954.20;;;3.55;71.87
12536;BME280;6334;48.696;2.114;2023-01-28T03:43:20;100951.76;;;3.40;72.91
12536;BME280;6334;48.696;2.114;2023-01-28T03:45:50;100955.81;;;3.41;72.51
12536;BME280;6334;48.696;2.114;2023-01-28T03:48:22;100959.63;;;3.37;72.23
12536;BME280;6334;48.696;2.114;2023-01-28T03:50:51;100960.98;;;3.54;72.21
12536;BME280;6334;48.696;2.114;2023-01-28T03:53:22;100961.48;;;3.55;72.20
12536;BME280;6334;48.696;2.114;2023-01-28T03:55:53;100962.59;;;3.34;71.93
12536;BME280;6334;48.696;2.114;2023-01-28T03:58:25;100966.52;;;3.47;72.25
12536;BME280;6334;48.696;2.114;2023-01-28T04:01:14;100969.34;;;3.58;72.38
12536;BME280;6334;48.696;2.114;2023-01-28T04:03:44;100964.38;;;3.31;72.50
12536;BME280;6334;48.696;2.114;2023-01-28T04:06:16;100964.72;;;3.37;72.85
12536;BME280;6334;48.696;2.114;2023-01-28T04:08:46;100971.06;;;3.58;72.10
12536;BME280;6334;48.696;2.114;2023-01-28T04:11:21;100953.28;;;3.23;72.91
12536;BME280;6334;48.696;2.114;2023-01-28T04:13:51;100977.29;;;3.39;72.67
12536;BME280;6334;48.696;2.114;2023-01-28T04:16:21;100971.69;;;3.41;72.65
12536;BME280;6334;48.696;2.114;2023-01-28T04:18:52;100979.83;;;3.54;72.05
12536;BME280;6334;48.696;2.114;2023-01-28T04:21:22;100980.39;;;3.41;72.29
12536;BME280;6334;48.696;2.114;2023-01-28T04:23:52;100983.73;;;3.30;71.92
12536;BME280;6334;48.696;2.114;2023-01-28T04:26:23;100981.27;;;3.37;71.91
12536;BME280;6334;48.696;2.114;2023-01-28T04:28:53;100982.84;;;3.40;71.36
12536;BME280;6334;48.696;2.114;2023-01-28T04:31:24;100987.78;;;3.40;72.42
12536;BME280;6334;48.696;2.114;2023-01-28T04:33:54;100990.27;;;3.46;71.39
12536;BME280;6334;48.696;2.114;2023-01-28T04:36:25;100987.00;;;3.44;71.78
12536;BME280;6334;48.696;2.114;2023-01-28T04:38:55;100980.38;;;3.43;71.85
12536;BME280;6334;48.696;2.114;2023-01-28T04:41:26;100983.13;;;3.31;72.14
12536;BME280;6334;48.696;2.114;2023-01-28T04:43:56;100993.30;;;3.32;72.02
12536;BME280;6334;48.696;2.114;2023-01-28T04:46:27;100998.53;;;3.44;71.79
12536;BME280;6334;48.696;2.114;2023-01-28T04:48:57;100992.02;;;3.24;71.93
12536;BME280;6334;48.696;2.114;2023-01-28T04:51:27;100994.88;;;3.46;71.62
12536;BME280;6334;48.696;2.114;2023-01-28T04:53:58;100999.44;;;3.37;72.03
12536;BME280;6334;48.696;2.114;2023-01-28T04:56:28;101000.33;;;3.36;71.95
12536;BME280;6334;48.696;2.114;2023-01-28T04:58:59;100998.50;;;3.26;71.62
12536;BME280;6334;48.696;2.114;2023-01-28T05:01:29;100992.08;;;3.34;71.59
12536;BME280;6334;48.696;2.114;2023-01-28T05:03:59;101003.50;;;3.18;72.15
12536;BME280;6334;48.696;2.114;2023-01-28T05:06:32;101002.92;;;3.28;71.40
12536;BME280;6334;48.696;2.114;2023-01-28T05:09:00;101005.97;;;3.11;72.06
12536;BME280;6334;48.696;2.114;2023-01-28T05:11:30;101003.16;;;3.20;72.08
12536;BME280;6334;48.696;2.114;2023-01-28T05:14:01;101016.23;;;3.20;71.56
12536;BME280;6334;48.696;2.114;2023-01-28T05:16:31;101015.08;;;3.20;72.08
12536;BME280;6334;48.696;2.114;2023-01-28T05:19:02;101015.29;;;3.17;72.18
12536;BME280;6334;48.696;2.114;2023-01-28T05:21:32;101011.38;;;3.20;71.09
12536;BME280;6334;48.696;2.114;2023-01-28T05:24:03;101017.27;;;3.39;71.51
12536;BME280;6334;48.696;2.114;2023-01-28T05:26:33;101018.41;;;3.31;71.21
12536;BME280;6334;48.696;2.114;2023-01-28T05:29:03;101017.73;;;3.36;70.88
12536;BME280;6334;48.696;2.114;2023-01-28T05:31:34;101012.98;;;3.39;70.79
12536;BME280;6334;48.696;2.114;2023-01-28T05:34:04;101015.38;;;3.25;70.93
12536;BME280;6334;48.696;2.114;2023-01-28T05:36:34;101014.13;;;3.41;71.32
12536;BME280;6334;48.696;2.114;2023-01-28T05:39:04;101016.16;;;3.32;71.60
12536;BME280;6334;48.696;2.114;2023-01-28T05:41:35;101013.20;;;3.33;71.50
12536;BME280;6334;48.696;2.114;2023-01-28T05:44:05;101022.23;;;3.35;71.87
12536;BME280;6334;48.696;2.114;2023-01-28T05:46:36;101024.84;;;3.32;71.23
12536;BME280;6334;48.696;2.114;2023-01-28T05:49:06;101026.77;;;3.36;71.50
12536;BME280;6334;48.696;2.114;2023-01-28T05:51:37;101028.50;;;3.43;70.87
12536;BME280;6334;48.696;2.114;2023-01-28T05:54:07;101029.30;;;3.42;70.84
12536;BME280;6334;48.696;2.114;2023-01-28T05:56:38;101034.09;;;3.36;71.28
12536;BME280;6334;48.696;2.114;2023-01-28T05:59:09;101037.39;;;3.40;71.30
12536;BME280;6334;48.696;2.114;2023-01-28T06:01:39;101033.18;;;3.43;70.59
12536;BME280;6334;48.696;2.114;2023-01-28T06:04:09;101029.44;;;3.54;70.62
12536;BME280;6334;48.696;2.114;2023-01-28T06:06:39;101039.42;;;3.50;70.64
12536;BME280;6334;48.696;2.114;2023-01-28T06:09:10;101038.42;;;3.67;70.11
12536;BME280;6334;48.696;2.114;2023-01-28T06:11:42;101037.50;;;3.54;70.90
12536;BME280;6334;48.696;2.114;2023-01-28T06:14:12;101038.19;;;3.42;70.55
12536;BME280;6334;48.696;2.114;2023-01-28T06:16:43;101036.47;;;3.35;71.35
12536;BME280;6334;48.696;2.114;2023-01-28T06:19:13;101046.06;;;3.36;70.71
12536;BME280;6334;48.696;2.114;2023-01-28T06:21:43;101046.39;;;3.55;70.40
12536;BME280;6334;48.696;2.114;2023-01-28T06:24:14;101051.80;;;3.41;70.30
12536;BME280;6334;48.696;2.114;2023-01-28T06:26:44;101054.30;;;3.59;70.45
12536;BME280;6334;48.696;2.114;2023-01-28T06:29:15;101059.09;;;3.73;70.29
12536;BME280;6334;48.696;2.114;2023-01-28T06:31:45;101061.30;;;3.49;70.96
12536;BME280;6334;48.696;2.114;2023-01-28T06:34:17;101061.60;;;3.36;71.47
12536;BME280;6334;48.696;2.114;2023-01-28T06:36:47;101065.09;;;3.53;70.61
12536;BME280;6334;48.696;2.114;2023-01-28T06:39:18;101067.72;;;3.57;70.56
12536;BME280;6334;48.696;2.114;2023-01-28T06:41:48;101068.94;;;3.52;69.74
12536;BME280;6334;48.696;2.114;2023-01-28T06:44:19;101073.19;;;3.60;70.43
12536;BME280;6334;48.696;2.114;2023-01-28T06:46:49;101074.50;;;3.56;70.77
12536;BME280;6334;48.696;2.114;2023-01-28T06:49:20;101081.58;;;3.49;70.92
12536;BME280;6334;48.696;2.114;2023-01-28T06:51:50;101088.97;;;3.40;70.71
12536;BME280;6334;48.696;2.114;2023-01-28T06:54:21;101088.20;;;3.43;71.16
12536;BME280;6334;48.696;2.114;2023-01-28T06:56:50;101091.37;;;3.53;69.88
12536;BME280;6334;48.696;2.114;2023-01-28T06:59:21;101086.54;;;3.47;70.40
12536;BME280;6334;48.696;2.114;2023-01-28T07:01:52;101089.53;;;3.57;71.37
12536;BME280;6334;48.696;2.114;2023-01-28T07:04:22;101092.55;;;3.18;71.24
12536;BME280;6334;48.696;2.114;2023-01-28T07:06:55;101089.88;;;3.58;71.28
12536;BME280;6334;48.696;2.114;2023-01-28T07:09:25;101094.23;;;3.65;71.11
12536;BME280;6334;48.696;2.114;2023-01-28T07:11:56;101092.80;;;3.51;70.38
12536;BME280;6334;48.696;2.114;2023-01-28T07:14:25;101099.11;;;3.61;71.07
12536;BME280;6334;48.696;2.114;2023-01-28T07:16:56;101108.16;;;3.49;69.67
12536;BME280;6334;48.696;2.114;2023-01-28T07:19:25;101098.36;;;3.56;70.07
12536;BME280;6334;48.696;2.114;2023-01-28T07:21:55;101102.16;;;3.60;69.70
12536;BME280;6334;48.696;2.114;2023-01-28T07:24:25;101106.64;;;3.68;70.52
12536;BME280;6334;48.696;2.114;2023-01-28T07:26:56;101108.88;;;3.41;71.37
12536;BME280;6334;48.696;2.114;2023-01-28T07:29:26;101099.97;;;3.50;70.48
12536;BME280;6334;48.696;2.114;2023-01-28T07:31:57;101101.83;;;3.64;70.63
12536;BME280;6334;48.696;2.114;2023-01-28T07:34:27;101106.11;;;3.79;70.77
12536;BME280;6334;48.696;2.114;2023-01-28T07:36:58;101115.09;;;3.66;70.68
12536;BME280;6334;48.696;2.114;2023-01-28T07:39:28;101112.48;;;3.50;71.16
12536;BME280;6334;48.696;2.114;2023-01-28T07:41:58;101110.02;;;3.82;70.30
12536;BME280;6334;48.696;2.114;2023-01-28T07:44:28;101109.33;;;3.62;69.50
12536;BME280;6334;48.696;2.114;2023-01-28T07:46:59;101106.71;;;3.67;70.27
12536;BME280;6334;48.696;2.114;2023-01-28T07:49:29;101109.37;;;3.51;71.19
12536;BME280;6334;48.696;2.114;2023-01-28T07:52:00;101103.55;;;3.61;69.51
12536;BME280;6334;48.696;2.114;2023-01-28T07:54:30;101104.66;;;3.57;70.09
12536;BME280;6334;48.696;2.114;2023-01-28T07:57:02;101112.30;;;3.74;69.91
12536;BME280;6334;48.696;2.114;2023-01-28T07:59:31;101111.83;;;3.65;70.49
12536;BME280;6334;48.696;2.114;2023-01-28T08:02:02;101114.63;;;3.72;70.25
12536;BME280;6334;48.696;2.114;2023-01-28T08:04:32;101116.69;;;3.65;70.60
12536;BME280;6334;48.696;2.114;2023-01-28T08:07:03;101115.77;;;3.74;69.46
12536;BME280;6334;48.696;2.114;2023-01-28T08:09:32;101111.23;;;3.49;70.70
12536;BME280;6334;48.696;2.114;2023-01-28T08:12:03;101116.23;;;3.69;70.24
12536;BME280;6334;48.696;2.114;2023-01-28T08:14:33;101120.67;;;3.54;70.25
12536;BME280;6334;48.696;2.114;2023-01-28T08:17:04;101119.45;;;3.54;70.77
12536;BME280;6334;48.696;2.114;2023-01-28T08:19:34;101121.03;;;3.59;69.68
12536;BME280;6334;48.696;2.114;2023-01-28T08:22:05;101119.34;;;3.73;68.99
12536;BME280;6334;48.696;2.114;2023-01-28T08:24:35;101120.06;;;3.83;69.38
12536;BME280;6334;48.696;2.114;2023-01-28T08:27:06;101123.58;;;3.69;69.65
12536;BME280;6334;48.696;2.114;2023-01-28T08:29:36;101130.75;;;3.57;69.17
12536;BME280;6334;48.696;2.114;2023-01-28T08:32:06;101131.69;;;3.85;68.91
12536;BME280;6334;48.696;2.114;2023-01-28T08:34:37;101129.90;;;3.79;69.07
12536;BME280;6334;48.696;2.114;2023-01-28T08:37:07;101136.46;;;3.93;68.13
12536;BME280;6334;48.696;2.114;2023-01-28T08:39:38;101138.82;;;3.90;68.61
12536;BME280;6334;48.696;2.114;2023-01-28T08:42:07;101144.14;;;3.69;69.16
12536;BME280;6334;48.696;2.114;2023-01-28T08:44:37;101130.16;;;3.81;68.98
12536;BME280;6334;48.696;2.114;2023-01-28T08:47:07;101136.52;;;3.94;68.98
12536;BME280;6334;48.696;2.114;2023-01-28T08:49:38;101138.39;;;3.81;69.36
12536;BME280;6334;48.696;2.114;2023-01-28T08:52:08;101151.05;;;3.62;69.00
12536;BME280;6334;48.696;2.114;2023-01-28T08:54:39;101144.25;;;3.83;68.28
12536;BME280;6334;48.696;2.114;2023-01-28T08:57:09;101143.80;;;3.79;69.04
12536;BME280;6334;48.696;2.114;2023-01-28T08:59:40;101153.52;;;3.59;69.07
12536;BME280;6334;48.696;2.114;2023-01-28T09:02:13;101155.46;;;3.70;68.15
12536;BME280;6334;48.696;2.114;2023-01-28T09:04:43;101158.78;;;3.62;65.83
12536;BME280;6334;48.696;2.114;2023-01-28T09:07:14;101160.21;;;3.67;65.97
12536;BME280;6334;48.696;2.114;2023-01-28T09:09:43;101163.25;;;3.77;67.08
12536;BME280;6334;48.696;2.114;2023-01-28T09:12:14;101161.01;;;3.62;66.51
12536;BME280;6334;48.696;2.114;2023-01-28T09:14:44;101169.93;;;3.58;66.26
12536;BME280;6334;48.696;2.114;2023-01-28T09:17:15;101167.01;;;3.52;67.26
12536;BME280;6334;48.696;2.114;2023-01-28T09:19:45;101168.55;;;3.53;65.37
12536;BME280;6334;48.696;2.114;2023-01-28T09:22:16;101170.27;;;3.66;66.60
12536;BME280;6334;48.696;2.114;2023-01-28T09:24:46;101167.25;;;3.78;65.54
12536;BME280;6334;48.696;2.114;2023-01-28T09:27:16;101173.98;;;3.63;65.27
12536;BME280;6334;48.696;2.114;2023-01-28T09:29:47;101180.27;;;3.66;65.28
12536;BME280;6334;48.696;2.114;2023-01-28T09:32:17;101183.98;;;3.74;65.89
12536;BME280;6334;48.696;2.114;2023-01-28T09:34:48;101186.50;;;3.85;66.37
12536;BME280;6334;48.696;2.114;2023-01-28T09:37:18;101171.86;;;3.61;66.41
12536;BME280;6334;48.696;2.114;2023-01-28T09:39:49;101181.80;;;3.90;64.05
12536;BME280;6334;48.696;2.114;2023-01-28T09:42:31;101186.55;;;3.92;64.01
12536;BME280;6334;48.696;2.114;2023-01-28T09:45:26;101176.37;;;4.03;65.12
12536;BME280;6334;48.696;2.114;2023-01-28T09:47:57;101194.88;;;3.96;65.95
12536;BME280;6334;48.696;2.114;2023-01-28T09:50:33;101187.21;;;3.85;63.10
12536;BME280;6334;48.696;2.114;2023-01-28T09:53:09;101194.23;;;3.90;65.04
12536;BME280;6334;48.696;2.114;2023-01-28T09:55:35;101195.23;;;3.88;62.94
12536;BME280;6334;48.696;2.114;2023-01-28T09:58:10;101183.10;;;3.65;63.95
12536;BME280;6334;48.696;2.114;2023-01-28T10:00:41;101192.31;;;3.62;64.13
12536;BME280;6334;48.696;2.114;2023-01-28T10:03:26;101196.18;;;3.82;63.83
12536;BME280;6334;48.696;2.114;2023-01-28T10:13:49;101197.52;;;3.73;64.61
12536;BME280;6334;48.696;2.114;2023-01-28T10:16:39;101192.19;;;3.68;64.87
12536;BME280;6334;48.696;2.114;2023-01-28T10:19:15;101198.11;;;3.95;65.24
12536;BME280;6334;48.696;2.114;2023-01-28T10:21:46;101203.18;;;3.75;65.29
12536;BME280;6334;48.696;2.114;2023-01-28T10:24:39;101199.29;;;3.94;64.18
12536;BME280;6334;48.696;2.114;2023-01-28T10:26:47;101200.23;;;3.79;64.39
12536;BME280;6334;48.696;2.114;2023-01-28T10:29:24;101196.22;;;3.78;65.33
12536;BME280;6334;48.696;2.114;2023-01-28T10:31:54;101200.30;;;3.84;65.23
12536;BME280;6334;48.696;2.114;2023-01-28T10:34:24;101201.17;;;3.76;65.95
12536;BME280;6334;48.696;2.114;2023-01-28T10:36:54;101198.72;;;3.74;65.47
12536;BME280;6334;48.696;2.114;2023-01-28T10:39:25;101206.91;;;3.77;65.04
12536;BME280;6334;48.696;2.114;2023-01-28T10:41:56;101204.28;;;3.85;65.94
12536;BME280;6334;48.696;2.114;2023-01-28T10:44:37;101208.69;;;3.82;65.79
12536;BME280;6334;48.696;2.114;2023-01-28T10:47:16;101206.99;;;3.90;65.34
12536;BME280;6334;48.696;2.114;2023-01-28T10:49:46;101221.20;;;3.75;65.78
12536;BME280;6334;48.696;2.114;2023-01-28T10:52:15;101215.48;;;3.78;65.87
12536;BME280;6334;48.696;2.114;2023-01-28T10:54:46;101226.13;;;3.64;66.65
12536;BME280;6334;48.696;2.114;2023-01-28T10:57:16;101224.20;;;3.62;66.49
12536;BME280;6334;48.696;2.114;2023-01-28T10:59:47;101230.10;;;3.66;66.52
12536;BME280;6334;48.696;2.114;2023-01-28T11:02:31;101220.83;;;3.62;65.85
12536;BME280;6334;48.696;2.114;2023-01-28T11:05:15;101226.17;;;3.61;65.29
12536;BME280;6334;48.696;2.114;2023-01-28T11:07:43;101217.88;;;3.50;66.46
12536;BME280;6334;48.696;2.114;2023-01-28T11:12:56;101214.22;;;3.70;66.55
12536;BME280;6334;48.696;2.114;2023-01-28T11:15:26;101216.14;;;3.69;65.91
12536;BME280;6334;48.696;2.114;2023-01-28T11:18:01;101210.43;;;3.56;66.47
12536;BME280;6334;48.696;2.114;2023-01-28T11:20:30;101210.36;;;3.64;66.96
12536;BME280;6334;48.696;2.114;2023-01-28T11:23:00;101206.87;;;3.74;66.24
12536;BME280;6334;48.696;2.114;2023-01-28T11:25:35;101211.41;;;3.72;66.24
12536;BME280;6334;48.696;2.114;2023-01-28T11:28:05;101205.97;;;3.65;67.00
12536;BME280;6334;48.696;2.114;2023-01-28T11:30:35;101206.66;;;3.63;66.84
12536;BME280;6334;48.696;2.114;2023-01-28T11:33:21;101204.40;;;3.67;66.56
12536;BME280;6334;48.696;2.114;2023-01-28T11:36:15;101202.47;;;3.61;66.97
12536;BME280;6334;48.696;2.114;2023-01-28T11:38:47;101201.47;;;3.66;67.52
12536;BME280;6334;48.696;2.114;2023-01-28T11:41:16;101198.16;;;3.72;66.56
12536;BME280;6334;48.696;2.114;2023-01-28T11:43:47;101196.45;;;3.64;66.60
12536;BME280;6334;48.696;2.114;2023-01-28T11:48:58;101207.78;;;3.74;67.14
12536;BME280;6334;48.696;2.114;2023-01-28T11:54:18;101200.77;;;3.38;68.04
12536;BME280;6334;48.696;2.114;2023-01-28T11:56:47;101193.23;;;3.53;66.73
12536;BME280;6334;48.696;2.114;2023-01-28T11:59:40;101194.36;;;3.60;66.54
12536;BME280;6334;48.696;2.114;2023-01-28T12:05:15;101191.04;;;3.75;67.17
12536;BME280;6334;48.696;2.114;2023-01-28T12:07:43;101205.98;;;3.53;67.35
12536;BME280;6334;48.696;2.114;2023-01-28T12:10:17;101192.13;;;3.59;67.08
12536;BME280;6334;48.696;2.114;2023-01-28T12:12:49;101191.83;;;3.56;65.96
12536;BME280;6334;48.696;2.114;2023-01-28T12:18:14;101189.58;;;4.60;67.95
12536;BME280;6334;48.696;2.114;2023-01-28T12:23:54;101191.21;;;3.93;66.54
12536;BME280;6334;48.696;2.114;2023-01-28T12:26:41;101188.16;;;3.93;66.15
12536;BME280;6334;48.696;2.114;2023-01-28T12:29:34;101185.41;;;3.79;66.68
12536;BME280;6334;48.696;2.114;2023-01-28T12:40:50;101167.97;;;3.94;64.44
12536;BME280;6334;48.696;2.114;2023-01-28T12:46:03;101163.91;;;4.15;64.13
12536;BME280;6334;48.696;2.114;2023-01-28T12:48:33;101168.97;;;4.10;64.37
12536;BME280;6334;48.696;2.114;2023-01-28T12:54:03;101170.25;;;4.11;64.60
12536;BME280;6334;48.696;2.114;2023-01-28T12:56:38;101166.27;;;4.05;64.86
12536;BME280;6334;48.696;2.114;2023-01-28T12:59:10;101166.08;;;3.87;64.26
12536;BME280;6334;48.696;2.114;2023-01-28T13:01:47;101178.65;;;3.92;64.69
12536;BME280;6334;48.696;2.114;2023-01-28T13:07:14;101164.53;;;3.78;64.86
12536;BME280;6334;48.696;2.114;2023-01-28T13:09:50;101168.11;;;3.77;65.06
12536;BME280;6334;48.696;2.114;2023-01-28T13:12:19;101168.11;;;3.81;63.34
12536;BME280;6334;48.696;2.114;2023-01-28T13:14:49;101174.19;;;3.84;64.84
12536;BME280;6334;48.696;2.114;2023-01-28T13:17:29;101175.16;;;3.93;64.03
12536;BME280;6334;48.696;2.114;2023-01-28T13:19:56;101165.49;;;3.55;63.77
12536;BME280;6334;48.696;2.114;2023-01-28T13:22:35;101170.55;;;3.93;64.06
12536;BME280;6334;48.696;2.114;2023-01-28T13:25:21;101165.05;;;3.98;64.44
12536;BME280;6334;48.696;2.114;2023-01-28T13:28:03;101170.77;;;3.87;63.88
12536;BME280;6334;48.696;2.114;2023-01-28T13:30:32;101165.62;;;3.91;63.68
12536;BME280;6334;48.696;2.114;2023-01-28T13:33:04;101170.06;;;3.91;63.78
12536;BME280;6334;48.696;2.114;2023-01-28T13:35:38;101162.56;;;3.75;63.24
12536;BME280;6334;48.696;2.114;2023-01-28T13:38:16;101162.23;;;3.96;64.30
12536;BME280;6334;48.696;2.114;2023-01-28T13:40:59;101167.56;;;3.87;63.26
12536;BME280;6334;48.696;2.114;2023-01-28T13:46:11;101170.17;;;3.96;63.08
12536;BME280;6334;48.696;2.114;2023-01-28T13:48:49;101174.06;;;3.94;62.54
12536;BME280;6334;48.696;2.114;2023-01-28T13:51:24;101178.05;;;3.76;63.95
12536;BME280;6334;48.696;2.114;2023-01-28T13:54:06;101172.77;;;3.85;62.82
12536;BME280;6334;48.696;2.114;2023-01-28T13:59:20;101176.81;;;3.69;62.87
12536;BME280;6334;48.696;2.114;2023-01-28T14:01:59;101173.27;;;3.62;62.38
12536;BME280;6334;48.696;2.114;2023-01-28T14:05:02;101171.64;;;3.60;62.96
12536;BME280;6334;48.696;2.114;2023-01-28T14:16:17;101181.70;;;3.75;61.23
12536;BME280;6334;48.696;2.114;2023-01-28T14:18:44;101189.48;;;3.93;61.91
12536;BME280;6334;48.696;2.114;2023-01-28T14:21:15;101176.18;;;4.04;62.67
12536;BME280;6334;48.696;2.114;2023-01-28T14:23:48;101175.79;;;3.97;62.02
12536;BME280;6334;48.696;2.114;2023-01-28T14:26:34;101177.70;;;3.95;62.57
12536;BME280;6334;48.696;2.114;2023-01-28T14:31:50;101187.77;;;3.77;59.91
12536;BME280;6334;48.696;2.114;2023-01-28T14:34:25;101177.85;;;3.87;61.24
12536;BME280;6334;48.696;2.114;2023-01-28T14:36:57;101188.50;;;3.83;60.59
12536;BME280;6334;48.696;2.114;2023-01-28T14:39:28;101187.23;;;3.90;61.10
12536;BME280;6334;48.696;2.114;2023-01-28T14:42:01;101189.98;;;3.66;61.76
12536;BME280;6334;48.696;2.114;2023-01-28T14:44:34;101192.18;;;3.95;61.07
12536;BME280;6334;48.696;2.114;2023-01-28T14:49:47;101195.02;;;3.67;61.06
12536;BME280;6334;48.696;2.114;2023-01-28T14:55:08;101197.94;;;3.78;60.86
12536;BME280;6334;48.696;2.114;2023-01-28T14:57:40;101191.77;;;4.09;60.38
12536;BME280;6334;48.696;2.114;2023-01-28T15:00:21;101190.14;;;3.86;61.78